Time;durP1;ratioP1;P1;durP2;ratioP2;P2;SDS_P1;SDS_P2;PMS_P1;PMS_P2;Temp;Humidity;BMP_temperature;BMP_pressure;BME280_temperature;BME280_humidity;BME280_pressure;Samples;Min_cycle;Max_cycle;Signal;HPM_P1;HPM_P2
2022/05/21 00:01:49;;;;;;;14.20;10.30;;;13.40;99.90;;;;;;2618325;54;20447;-80
2022/05/21 00:04:16;;;;;;;10.60;8.47;;;13.30;99.90;;;;;;2619706;46;20190;-80
2022/05/21 00:06:42;;;;;;;10.67;9.33;;;13.20;99.90;;;;;;2616209;47;20394;-73
2022/05/21 00:09:09;;;;;;;13.13;8.33;;;13.10;99.90;;;;;;2615395;54;20439;-73
2022/05/21 00:11:36;;;;;;;10.37;8.47;;;13.10;99.90;;;;;;2618055;54;20418;-79
2022/05/21 00:14:02;;;;;;;14.60;8.67;;;13.00;99.90;;;;;;2618333;54;21025;-78
2022/05/21 00:16:29;;;;;;;14.10;9.13;;;13.00;99.90;;;;;;2616858;47;20411;-74
2022/05/21 00:18:56;;;;;;;16.97;10.10;;;13.00;99.90;;;;;;2615798;54;20404;-73
2022/05/21 00:21:23;;;;;;;14.53;10.87;;;12.90;99.90;;;;;;2615250;54;20371;-73
2022/05/21 00:23:51;;;;;;;13.57;10.93;;;12.80;99.90;;;;;;2615299;54;20536;-73
2022/05/21 00:26:17;;;;;;;13.50;10.80;;;12.90;99.90;;;;;;2615144;39;21123;-76
2022/05/21 00:28:45;;;;;;;12.70;11.40;;;12.70;99.90;;;;;;2615691;54;20431;-75
2022/05/21 00:31:13;;;;;;;20.30;11.57;;;12.70;99.90;;;;;;2616151;39;20773;-74
2022/05/21 00:33:40;;;;;;;14.60;11.37;;;12.70;99.90;;;;;;2615570;54;20959;-74
2022/05/21 00:36:07;;;;;;;20.13;11.90;;;12.70;99.90;;;;;;2616494;54;20396;-78
2022/05/21 00:38:34;;;;;;;15.37;10.77;;;12.70;99.90;;;;;;2617655;51;20414;-79
2022/05/21 00:41:02;;;;;;;15.53;10.37;;;12.60;99.90;;;;;;2617687;54;20407;-74
2022/05/21 00:43:40;;;;;;;16.93;12.27;;;12.50;99.90;;;;;;2615070;54;20407;-73
2022/05/21 00:46:09;;;;;;;14.77;10.87;;;12.40;99.90;;;;;;2616180;54;20423;-71
2022/05/21 00:48:36;;;;;;;12.87;10.97;;;12.50;99.90;;;;;;2615370;54;20459;-72
2022/05/21 00:51:04;;;;;;;14.83;12.20;;;12.40;99.90;;;;;;2615425;54;20419;-74
2022/05/21 00:53:30;;;;;;;15.60;11.07;;;12.40;99.90;;;;;;2615704;46;20422;-74
2022/05/21 00:55:57;;;;;;;14.40;11.20;;;12.30;99.90;;;;;;2615253;51;20415;-69
2022/05/21 01:01:13;;;;;;;16.33;12.47;;;12.40;99.90;;;;;;2615897;54;20559;-74
2022/05/21 01:03:39;;;;;;;15.97;12.00;;;12.20;99.90;;;;;;2614119;54;20366;-74
2022/05/21 01:12:15;;;;;;;15.07;10.40;;;12.10;99.90;;;;;;2618516;54;20415;-78
2022/05/21 01:18:23;;;;;;;15.93;11.97;;;12.10;99.90;;;;;;2617661;54;20423;-71
2022/05/21 01:20:58;;;;;;;19.03;12.50;;;12.00;99.90;;;;;;2615081;39;20816;-72
2022/05/21 01:23:24;;;;;;;14.50;9.93;;;12.00;99.90;;;;;;2615642;39;20527;-75
2022/05/21 01:25:50;;;;;;;16.57;10.53;;;12.00;99.90;;;;;;2615421;54;20406;-74
2022/05/21 01:28:21;;;;;;;11.53;9.13;;;12.00;99.90;;;;;;2614563;54;20419;-74
2022/05/21 01:30:50;;;;;;;10.33;9.20;;;12.00;99.90;;;;;;2613685;54;20388;-74
2022/05/21 01:33:19;;;;;;;11.90;8.77;;;12.00;99.90;;;;;;2614530;54;20415;-73
2022/05/21 01:35:46;;;;;;;10.63;9.53;;;12.10;99.90;;;;;;2615355;54;20415;-73
2022/05/21 01:38:14;;;;;;;12.53;9.07;;;12.00;99.90;;;;;;2614815;54;20974;-77
2022/05/21 01:40:41;;;;;;;9.77;7.30;;;12.00;99.90;;;;;;2616380;54;20407;-79
2022/05/21 01:45:52;;;;;;;12.57;8.97;;;12.00;99.90;;;;;;2617505;54;20510;-78
2022/05/21 01:48:21;;;;;;;10.00;7.20;;;12.00;99.90;;;;;;2616324;54;20409;-75
2022/05/21 01:50:48;;;;;;;10.83;8.50;;;12.00;99.90;;;;;;2615838;54;20499;-73
2022/05/21 01:53:15;;;;;;;11.77;6.80;;;12.10;99.90;;;;;;2615252;54;20399;-72
2022/05/21 01:55:42;;;;;;;13.90;7.43;;;12.10;99.90;;;;;;2615293;54;20382;-70
2022/05/21 01:58:08;;;;;;;9.40;7.57;;;12.20;99.90;;;;;;2614624;54;20462;-72
2022/05/21 02:00:34;;;;;;;11.90;6.83;;;12.30;99.90;;;;;;2615357;54;20950;-72
2022/05/21 02:03:00;;;;;;;10.60;6.80;;;12.40;99.90;;;;;;2615330;54;20143;-70
2022/05/21 02:05:26;;;;;;;10.73;7.70;;;12.40;99.90;;;;;;2615695;54;20896;-71
2022/05/21 02:07:52;;;;;;;7.93;6.83;;;12.50;99.90;;;;;;2615087;54;20155;-82
2022/05/21 02:10:19;;;;;;;7.50;6.23;;;12.50;99.90;;;;;;2619245;54;20411;-81
2022/05/21 02:12:45;;;;;;;8.40;6.30;;;12.50;99.90;;;;;;2618076;47;20155;-71
2022/05/21 02:15:11;;;;;;;6.80;5.90;;;12.60;99.90;;;;;;2614523;54;20404;-71
2022/05/21 02:17:37;;;;;;;8.73;6.60;;;12.60;99.90;;;;;;2616106;46;20162;-72
2022/05/21 02:20:03;;;;;;;8.77;6.50;;;12.60;99.90;;;;;;2615113;54;20447;-71
2022/05/21 02:22:30;;;;;;;6.40;5.30;;;12.50;99.90;;;;;;2616033;54;20151;-72
2022/05/21 02:24:56;;;;;;;13.70;5.80;;;12.60;99.90;;;;;;2614479;54;20396;-71
2022/05/21 02:27:22;;;;;;;6.90;5.37;;;12.60;99.90;;;;;;2614224;54;20404;-75
2022/05/21 02:29:48;;;;;;;7.50;5.20;;;12.70;99.90;;;;;;2615476;54;20378;-75
2022/05/21 02:32:14;;;;;;;5.87;4.50;;;12.60;99.90;;;;;;2615134;54;20177;-75
2022/05/21 02:34:44;;;;;;;5.80;5.20;;;12.60;99.90;;;;;;2615339;54;20363;-74
2022/05/21 02:39:56;;;;;;;9.57;6.50;;;12.70;99.90;;;;;;2615958;31;20840;-79
2022/05/21 02:45:07;;;;;;;5.93;5.43;;;12.80;99.90;;;;;;2618220;54;20487;-81
2022/05/21 02:47:33;;;;;;;6.93;5.77;;;12.80;99.90;;;;;;2618764;54;20947;-82
2022/05/21 02:49:59;;;;;;;7.27;6.10;;;12.90;99.90;;;;;;2618322;54;20403;-79
2022/05/21 02:52:26;;;;;;;6.97;5.20;;;12.80;99.90;;;;;;2617627;54;20403;-78
2022/05/21 02:54:52;;;;;;;10.90;5.67;;;12.80;99.90;;;;;;2617318;54;20452;-73
2022/05/21 02:57:17;;;;;;;7.70;6.33;;;12.80;99.90;;;;;;2615519;54;20384;-72
2022/05/21 02:59:43;;;;;;;9.23;5.33;;;12.90;99.90;;;;;;2615248;54;20254;-73
2022/05/21 03:02:09;;;;;;;6.07;4.80;;;12.80;99.90;;;;;;2615245;54;20662;-72
2022/05/21 03:04:35;;;;;;;7.67;4.87;;;12.90;99.90;;;;;;2616080;54;20173;-72
2022/05/21 03:07:01;;;;;;;16.03;8.00;;;12.90;99.90;;;;;;2618056;47;20155;-82
2022/05/21 03:12:12;;;;;;;11.00;7.00;;;12.90;99.90;;;;;;2619126;54;20425;-79
2022/05/21 03:14:38;;;;;;;14.70;8.17;;;12.90;99.90;;;;;;2619588;54;20479;-83
2022/05/21 03:17:05;;;;;;;15.10;9.43;;;12.90;99.90;;;;;;2614758;54;20473;-73
2022/05/21 03:19:34;;;;;;;17.73;8.53;;;12.80;99.90;;;;;;2613389;54;20443;-73
2022/05/21 03:22:00;;;;;;;7.93;7.10;;;12.90;99.90;;;;;;2615678;54;20532;-71
2022/05/21 03:24:28;;;;;;;7.63;6.83;;;12.80;99.90;;;;;;2616101;39;20796;-72
2022/05/21 03:26:55;;;;;;;11.07;8.10;;;12.90;99.90;;;;;;2615672;54;20383;-75
2022/05/21 03:29:21;;;;;;;10.50;8.13;;;12.90;99.90;;;;;;2615546;54;20387;-75
2022/05/21 03:31:47;;;;;;;13.30;9.83;;;12.90;99.90;;;;;;2618230;54;20390;-83
2022/05/21 03:34:13;;;;;;;10.00;8.60;;;12.80;99.90;;;;;;2620240;54;20435;-86
2022/05/21 03:36:40;;;;;;;10.90;8.63;;;12.80;99.90;;;;;;2615573;47;20659;-74
2022/05/21 03:39:06;;;;;;;13.03;9.50;;;12.90;99.90;;;;;;2616915;39;20735;-73
2022/05/21 03:41:32;;;;;;;12.27;9.80;;;12.90;99.90;;;;;;2618882;54;20422;-82
2022/05/21 03:43:58;;;;;;;13.10;9.23;;;12.90;99.90;;;;;;2619671;54;20763;-84
2022/05/21 03:46:24;;;;;;;11.87;8.27;;;12.90;99.90;;;;;;2617041;54;20227;-72
2022/05/21 03:48:51;;;;;;;12.57;8.97;;;12.90;99.90;;;;;;2615776;54;20462;-71
2022/05/21 03:51:17;;;;;;;11.93;9.70;;;12.90;99.90;;;;;;2615401;39;20871;-70
2022/05/21 03:53:43;;;;;;;14.17;9.97;;;12.90;99.90;;;;;;2615383;47;20915;-71
2022/05/21 03:56:09;;;;;;;14.27;11.33;;;12.90;99.90;;;;;;2615161;54;20395;-74
2022/05/21 03:58:35;;;;;;;13.57;11.50;;;12.90;99.90;;;;;;2615881;46;20284;-73
2022/05/21 04:01:01;;;;;;;15.63;9.67;;;12.90;99.90;;;;;;2617682;54;20388;-83
2022/05/21 04:03:27;;;;;;;15.63;9.97;;;13.00;99.90;;;;;;2619209;54;20411;-84
2022/05/21 04:05:57;;;;;;;14.43;9.30;;;13.00;99.90;;;;;;2618124;54;20379;-75
2022/05/21 04:08:24;;;;;;;14.40;7.93;;;13.00;99.90;;;;;;2616114;54;20423;-75
2022/05/21 04:10:51;;;;;;;10.60;9.40;;;13.00;99.90;;;;;;2615157;54;20407;-71
2022/05/21 04:13:17;;;;;;;13.13;10.50;;;13.00;99.90;;;;;;2614490;46;20396;-70
2022/05/21 04:15:43;;;;;;;11.90;8.00;;;13.00;99.90;;;;;;2616077;54;20403;-77
2022/05/21 04:18:09;;;;;;;14.77;9.73;;;13.00;99.90;;;;;;2616367;54;20404;-78
2022/05/21 04:20:36;;;;;;;8.47;7.23;;;13.00;99.90;;;;;;2615886;54;20451;-72
2022/05/21 04:23:02;;;;;;;17.33;10.00;;;13.00;99.90;;;;;;2615436;39;20745;-71
2022/05/21 04:25:28;;;;;;;13.53;8.23;;;13.10;99.90;;;;;;2615522;54;20434;-74
2022/05/21 04:27:54;;;;;;;16.27;9.00;;;13.10;99.90;;;;;;2614937;47;21005;-75
2022/05/21 04:30:28;;;;;;;14.10;9.30;;;13.10;99.90;;;;;;2616883;54;20380;-78
2022/05/21 04:32:55;;;;;;;13.93;8.70;;;13.00;99.90;;;;;;2616494;54;20151;-77
2022/05/21 04:35:21;;;;;;;13.80;10.60;;;13.00;99.90;;;;;;2615929;54;20395;-73
2022/05/21 04:37:47;;;;;;;15.70;10.77;;;13.00;99.90;;;;;;2614558;54;20399;-73
2022/05/21 04:40:17;;;;;;;12.90;10.43;;;13.00;99.90;;;;;;2614899;54;20369;-72
2022/05/21 04:42:43;;;;;;;20.50;10.73;;;13.00;99.90;;;;;;2615364;54;20503;-74
2022/05/21 04:45:10;;;;;;;13.77;9.77;;;13.10;99.90;;;;;;2615323;54;20387;-74
2022/05/21 04:47:36;;;;;;;16.90;9.60;;;13.10;99.90;;;;;;2615179;54;20468;-74
2022/05/21 04:50:03;;;;;;;20.73;11.03;;;13.10;99.90;;;;;;2615444;54;20431;-73
2022/05/21 04:52:29;;;;;;;16.10;10.43;;;13.10;99.90;;;;;;2615822;39;20772;-71
2022/05/21 04:54:57;;;;;;;14.07;9.97;;;13.10;99.90;;;;;;2615605;54;20955;-71
2022/05/21 04:57:23;;;;;;;16.77;10.43;;;13.10;99.90;;;;;;2613916;54;20367;-70
2022/05/21 04:59:49;;;;;;;20.37;9.90;;;13.10;99.90;;;;;;2614491;54;20669;-74
2022/05/21 05:02:14;;;;;;;14.97;10.33;;;13.20;99.90;;;;;;2615107;54;20157;-75
2022/05/21 05:04:40;;;;;;;12.17;10.70;;;13.20;99.90;;;;;;2615449;54;20692;-76
2022/05/21 05:07:07;;;;;;;16.17;10.57;;;13.20;99.90;;;;;;2615160;54;20189;-71
2022/05/21 05:09:42;;;;;;;13.90;10.23;;;13.30;99.90;;;;;;2614306;54;20727;-72
2022/05/21 05:12:08;;;;;;;19.37;9.73;;;13.20;99.90;;;;;;2615101;54;20418;-72
2022/05/21 05:14:36;;;;;;;13.00;8.83;;;13.30;99.90;;;;;;2616477;31;20837;-72
2022/05/21 05:17:02;;;;;;;16.60;10.00;;;13.30;99.90;;;;;;2614895;54;20359;-71
2022/05/21 05:19:31;;;;;;;11.00;9.27;;;13.30;99.90;;;;;;2615635;39;20757;-70
2022/05/21 05:21:57;;;;;;;10.90;9.40;;;13.30;99.90;;;;;;2614739;54;20407;-73
2022/05/21 05:24:24;;;;;;;17.97;9.80;;;13.40;99.90;;;;;;2614631;54;20446;-72
2022/05/21 05:26:50;;;;;;;15.70;9.83;;;13.50;99.90;;;;;;2615258;54;20391;-81
2022/05/21 05:29:15;;;;;;;12.40;8.87;;;13.60;99.90;;;;;;2616318;54;20574;-79
2022/05/21 05:31:41;;;;;;;14.10;10.83;;;13.50;99.90;;;;;;2615507;54;20417;-74
2022/05/21 05:34:07;;;;;;;14.73;9.30;;;13.40;99.90;;;;;;2615667;54;20368;-74
2022/05/21 05:36:33;;;;;;;13.97;9.93;;;13.40;99.90;;;;;;2615516;47;20153;-77
2022/05/21 05:38:59;;;;;;;13.33;8.77;;;13.40;99.90;;;;;;2616681;54;20399;-76
2022/05/21 05:41:29;;;;;;;13.87;8.47;;;13.40;99.90;;;;;;2615915;54;20470;-75
2022/05/21 05:43:56;;;;;;;11.47;8.87;;;13.40;99.90;;;;;;2615424;54;20490;-74
2022/05/21 05:46:24;;;;;;;14.03;8.70;;;13.30;99.90;;;;;;2614869;54;21287;-71
2022/05/21 05:48:50;;;;;;;9.67;8.53;;;13.30;99.90;;;;;;2615249;54;20483;-72
2022/05/21 05:51:17;;;;;;;17.93;9.30;;;13.30;99.90;;;;;;2615028;54;20376;-74
2022/05/21 05:53:48;;;;;;;11.07;7.57;;;13.40;99.90;;;;;;2614974;54;20495;-75
2022/05/21 05:56:15;;;;;;;14.03;8.97;;;13.50;99.90;;;;;;2614924;54;20922;-77
2022/05/21 06:01:26;;;;;;;11.53;8.53;;;13.60;99.90;;;;;;2614289;54;20390;-73
2022/05/21 06:03:53;;;;;;;12.93;7.13;;;13.60;99.90;;;;;;2613609;54;20438;-72
2022/05/21 06:06:19;;;;;;;14.33;8.10;;;13.60;99.90;;;;;;2614160;54;20935;-69
2022/05/21 06:08:45;;;;;;;12.53;8.70;;;13.70;99.90;;;;;;2615069;54;20507;-71
2022/05/21 06:11:12;;;;;;;12.10;8.80;;;13.60;99.90;;;;;;2615867;54;20502;-80
2022/05/21 06:13:38;;;;;;;19.33;9.90;;;13.70;99.90;;;;;;2615772;54;20374;-82
2022/05/21 06:16:04;;;;;;;11.87;9.80;;;13.70;99.90;;;;;;2615955;54;20376;-76
2022/05/21 06:18:30;;;;;;;14.27;8.57;;;13.70;99.90;;;;;;2615729;54;20379;-76
2022/05/21 06:20:59;;;;;;;21.33;9.33;;;13.70;99.90;;;;;;2615565;54;20418;-76
2022/05/21 06:23:25;;;;;;;11.20;9.10;;;13.70;99.90;;;;;;2614460;54;20538;-76
2022/05/21 06:25:51;;;;;;;13.17;9.93;;;13.70;99.90;;;;;;2615398;54;20394;-69
2022/05/21 06:28:17;;;;;;;13.17;8.67;;;13.50;99.90;;;;;;2614862;54;20454;-69
2022/05/21 06:30:45;;;;;;;15.83;8.80;;;13.60;99.90;;;;;;2615136;47;20403;-70
2022/05/21 06:33:19;;;;;;;20.93;9.63;;;13.70;99.90;;;;;;2615380;54;20396;-69
2022/05/21 06:35:46;;;;;;;20.30;9.20;;;13.90;99.90;;;;;;2615051;54;20466;-74
2022/05/21 06:38:12;;;;;;;9.27;8.00;;;13.90;99.90;;;;;;2616749;39;20829;-74
2022/05/21 06:40:38;;;;;;;12.97;8.80;;;13.90;99.90;;;;;;2615833;54;20396;-74
2022/05/21 06:43:04;;;;;;;13.13;9.00;;;13.90;99.90;;;;;;2615706;54;20384;-74
2022/05/21 06:45:32;;;;;;;15.93;10.07;;;13.80;99.90;;;;;;2615758;54;20397;-77
2022/05/21 06:48:06;;;;;;;12.43;10.27;;;13.80;99.90;;;;;;2616578;54;20427;-77
2022/05/21 06:50:33;;;;;;;14.53;9.17;;;13.80;99.90;;;;;;2616351;54;20399;-74
2022/05/21 06:52:59;;;;;;;16.03;7.83;;;13.90;99.90;;;;;;2614458;54;20492;-75
2022/05/21 06:55:25;;;;;;;14.73;9.47;;;14.10;99.90;;;;;;2615333;54;20403;-74
2022/05/21 06:57:51;;;;;;;11.23;9.97;;;14.10;99.90;;;;;;2615217;54;21360;-76
2022/05/21 07:00:20;;;;;;;11.43;8.97;;;14.00;99.90;;;;;;2615884;54;20441;-70
2022/05/21 07:02:46;;;;;;;12.30;8.97;;;14.00;99.90;;;;;;2614839;46;20221;-71
2022/05/21 07:07:56;;;;;;;17.37;9.63;;;14.00;99.90;;;;;;2618289;54;20386;-77
2022/05/21 07:10:25;;;;;;;10.03;7.67;;;13.90;99.90;;;;;;2616893;54;20375;-71
2022/05/21 07:12:51;;;;;;;13.07;8.10;;;13.90;99.90;;;;;;2615769;46;20174;-72
2022/05/21 07:15:17;;;;;;;9.47;7.93;;;13.70;99.90;;;;;;2615793;54;20942;-76
2022/05/21 07:17:45;;;;;;;10.83;8.13;;;13.80;99.90;;;;;;2614833;46;20201;-74
2022/05/21 07:20:15;;;;;;;14.20;9.53;;;13.90;99.90;;;;;;2615992;54;20414;-74
2022/05/21 07:22:43;;;;;;;18.13;9.30;;;13.90;99.90;;;;;;2615116;54;20391;-74
2022/05/21 07:25:12;;;;;;;14.97;8.70;;;13.90;99.90;;;;;;2613996;54;20406;-71
2022/05/21 07:27:39;;;;;;;10.57;9.37;;;14.10;99.90;;;;;;2613639;54;20390;-72
2022/05/21 07:30:06;;;;;;;14.07;9.23;;;14.10;99.90;;;;;;2615898;47;20401;-77
2022/05/21 07:32:32;;;;;;;12.70;9.13;;;14.20;99.90;;;;;;2616390;39;20808;-75
2022/05/21 07:35:05;;;;;;;14.33;9.37;;;14.20;99.90;;;;;;2616399;54;20396;-72
2022/05/21 07:37:31;;;;;;;12.37;10.60;;;14.20;99.90;;;;;;2615157;54;20371;-74
2022/05/21 07:39:57;;;;;;;13.27;9.03;;;14.20;99.90;;;;;;2615769;54;20442;-81
2022/05/21 07:42:23;;;;;;;14.57;9.93;;;14.10;99.90;;;;;;2617884;53;21200;-84
2022/05/21 07:44:50;;;;;;;15.40;9.60;;;14.10;99.90;;;;;;2617301;54;20188;-79
2022/05/21 07:47:16;;;;;;;17.00;10.00;;;14.20;99.90;;;;;;2615695;54;20483;-74
2022/05/21 07:49:42;;;;;;;12.57;10.10;;;14.30;99.90;;;;;;2615854;54;20546;-74
2022/05/21 07:52:09;;;;;;;14.70;9.43;;;14.30;99.90;;;;;;2615882;39;20750;-71
2022/05/21 07:54:35;;;;;;;11.60;8.00;;;14.30;99.90;;;;;;2614884;54;20375;-71
2022/05/21 07:57:01;;;;;;;10.10;8.80;;;14.50;99.90;;;;;;2614903;54;20399;-71
2022/05/21 07:59:28;;;;;;;12.10;9.50;;;14.60;99.90;;;;;;2615451;39;20773;-72
2022/05/21 08:01:54;;;;;;;15.77;10.23;;;14.60;99.90;;;;;;2615989;54;20412;-77
2022/05/21 08:04:21;;;;;;;11.87;10.30;;;14.50;99.90;;;;;;2616456;54;20976;-82
2022/05/21 08:06:47;;;;;;;13.73;9.27;;;14.40;99.90;;;;;;2615590;54;20422;-71
2022/05/21 08:09:13;;;;;;;13.30;9.67;;;14.40;99.90;;;;;;2615775;39;20810;-71
2022/05/21 08:11:39;;;;;;;12.53;9.73;;;14.50;99.90;;;;;;2615380;54;20150;-72
2022/05/21 08:14:05;;;;;;;11.67;9.97;;;14.70;99.90;;;;;;2615819;54;20407;-72
2022/05/21 08:16:31;;;;;;;11.80;9.20;;;14.80;99.90;;;;;;2614423;54;20419;-73
2022/05/21 08:18:57;;;;;;;19.60;9.60;;;14.80;99.90;;;;;;2615271;54;20523;-72
2022/05/21 08:21:25;;;;;;;14.50;9.50;;;14.70;99.90;;;;;;2615055;54;20288;-74
2022/05/21 08:29:19;;;;;;;10.80;8.30;;;14.70;99.90;;;;;;2614348;54;20407;-70
2022/05/21 08:31:45;;;;;;;13.33;8.80;;;14.80;99.90;;;;;;2614815;54;20408;-73
2022/05/21 08:34:11;;;;;;;12.67;9.63;;;14.90;99.90;;;;;;2614386;54;20150;-72
2022/05/21 08:36:37;;;;;;;18.70;10.27;;;14.90;99.90;;;;;;2612014;54;20396;-71
2022/05/21 08:39:03;;;;;;;13.10;8.87;;;15.00;99.90;;;;;;2612854;39;20628;-71
2022/05/21 08:41:32;;;;;;;14.60;9.23;;;15.00;99.90;;;;;;2612146;54;20182;-71
2022/05/21 08:44:43;;;;;;;9.20;8.30;;;15.00;99.90;;;;;;2611709;54;20524;-70
2022/05/21 08:47:27;;;;;;;12.47;9.33;;;15.20;99.90;;;;;;2613603;39;20799;-72
2022/05/21 08:50:05;;;;;;;15.33;9.63;;;15.50;99.90;;;;;;2613954;54;20411;-78
2022/05/21 08:53:04;;;;;;;15.10;9.00;;;15.70;99.90;;;;;;2614940;54;20403;-78
2022/05/21 08:55:40;;;;;;;16.57;9.03;;;16.10;99.90;;;;;;2614587;54;20552;-76
2022/05/21 08:58:37;;;;;;;13.10;9.43;;;16.40;99.90;;;;;;2615140;54;20382;-77
2022/05/21 09:01:03;;;;;;;12.83;9.27;;;16.00;99.90;;;;;;2614244;54;20470;-72
2022/05/21 09:03:29;;;;;;;16.83;11.00;;;15.80;99.90;;;;;;2611792;54;20400;-71
2022/05/21 09:06:19;;;;;;;21.50;10.93;;;15.60;99.90;;;;;;2612947;54;20506;-78
2022/05/21 09:09:11;;;;;;;17.20;11.30;;;15.30;99.90;;;;;;2614349;54;20426;-80
2022/05/21 09:11:45;;;;;;;15.23;10.67;;;15.20;99.90;;;;;;2614053;46;20976;-71
2022/05/21 09:14:30;;;;;;;19.70;10.97;;;15.00;99.90;;;;;;2611900;54;20452;-72
2022/05/21 09:16:56;;;;;;;15.00;11.60;;;15.00;99.90;;;;;;2612895;54;20419;-70
2022/05/21 09:19:33;;;;;;;21.30;10.80;;;15.00;99.90;;;;;;2612336;47;20433;-70
2022/05/21 09:22:05;;;;;;;13.07;9.27;;;15.30;99.90;;;;;;2613333;54;20431;-75
2022/05/21 09:24:41;;;;;;;20.03;8.63;;;15.70;99.90;;;;;;2612979;47;20406;-72
2022/05/21 09:27:39;;;;;;;15.50;9.70;;;15.60;99.90;;;;;;2614958;54;20510;-71
2022/05/21 09:30:36;;;;;;;12.00;9.67;;;15.40;99.90;;;;;;2615293;54;20511;-76
2022/05/21 09:33:32;;;;;;;12.90;9.60;;;15.20;99.90;;;;;;2612999;54;20399;-76
2022/05/21 09:35:59;;;;;;;11.63;9.03;;;15.20;99.90;;;;;;2613780;54;21258;-73
2022/05/21 09:38:28;;;;;;;14.70;11.00;;;15.30;99.90;;;;;;2614410;39;20907;-73
2022/05/21 09:41:20;;;;;;;14.93;10.37;;;16.10;99.90;;;;;;2615659;39;20901;-77
2022/05/21 09:46:36;;;;;;;10.03;7.90;;;16.80;99.90;;;;;;2615081;39;21082;-72
2022/05/21 09:49:13;;;;;;;10.87;9.73;;;17.10;99.90;;;;;;2613327;54;20399;-72
2022/05/21 09:51:40;;;;;;;18.10;7.67;;;17.40;99.90;;;;;;2611427;54;21237;-71
2022/05/21 09:54:43;;;;;;;11.80;7.80;;;17.90;99.90;;;;;;2613020;46;20440;-72
2022/05/21 09:57:30;;;;;;;10.47;8.43;;;18.40;99.90;;;;;;2612747;54;20415;-70
2022/05/21 10:00:31;;;;;;;16.40;8.87;;;18.30;99.90;;;;;;2630409;36;20498;-70
2022/05/21 10:03:00;;;;;;;10.87;8.20;;;18.90;99.90;;;;;;2612865;54;21340;-71
2022/05/21 10:05:36;;;;;;;20.07;9.60;;;19.80;95.50;;;;;;2612993;47;20513;-76
2022/05/21 10:11:07;;;;;;;15.00;7.90;;;20.10;67.40;;;;;;2614101;54;20398;-72
2022/05/21 10:13:44;;;;;;;13.00;7.90;;;19.30;71.70;;;;;;2612716;54;21126;-75
2022/05/21 10:16:36;;;;;;;8.07;7.27;;;19.40;58.90;;;;;;2613776;47;20409;-71
2022/05/21 10:19:13;;;;;;;11.13;6.90;;;19.30;61.70;;;;;;2613272;47;20483;-71
2022/05/21 10:21:59;;;;;;;9.30;7.00;;;19.30;54.50;;;;;;2613227;54;20400;-72
2022/05/21 10:24:55;;;;;;;12.00;7.93;;;19.70;52.90;;;;;;2612893;54;20434;-72
2022/05/21 10:27:39;;;;;;;10.43;8.13;;;19.00;57.60;;;;;;2615305;54;20404;-81
2022/05/21 10:30:19;;;;;;;10.57;7.03;;;19.10;49.00;;;;;;2615946;54;20435;-75
2022/05/21 10:33:25;;;;;;;9.57;7.30;;;18.70;56.60;;;;;;2614607;54;20400;-74
2022/05/21 10:36:12;;;;;;;8.50;7.67;;;18.60;51.80;;;;;;2615444;54;20442;-79
2022/05/21 10:39:18;;;;;;;11.90;7.60;;;18.40;54.20;;;;;;2616736;51;20507;-80
2022/05/21 10:41:44;;;;;;;11.43;7.67;;;18.40;57.10;;;;;;2616273;54;20407;-78
2022/05/21 10:44:25;;;;;;;11.90;7.77;;;18.10;66.60;;;;;;2616219;54;20518;-78
2022/05/21 10:47:04;;;;;;;10.20;7.20;;;18.20;59.20;;;;;;2615045;54;20151;-77
2022/05/21 10:49:41;;;;;;;11.73;6.80;;;18.50;61.50;;;;;;2614424;54;20420;-75
2022/05/21 10:52:31;;;;;;;8.40;7.57;;;18.80;49.70;;;;;;2615247;54;20387;-76
2022/05/21 10:55:03;;;;;;;10.57;7.50;;;18.60;48.40;;;;;;2614882;54;20440;-75
2022/05/21 10:58:03;;;;;;;10.60;8.20;;;18.40;51.10;;;;;;2615184;47;20414;-76
2022/05/21 11:00:52;;;;;;;13.63;9.40;;;18.10;57.80;;;;;;2615238;54;20982;-79
2022/05/21 11:03:38;;;;;;;12.07;8.33;;;17.90;61.30;;;;;;2616343;54;20407;-79
2022/05/21 11:06:07;;;;;;;9.93;7.80;;;17.90;64.90;;;;;;2615285;54;20396;-76
2022/05/21 11:09:10;;;;;;;11.43;9.00;;;18.20;64.40;;;;;;2615760;54;20415;-77
2022/05/21 11:12:04;;;;;;;13.70;8.40;;;18.00;47.50;;;;;;2617656;54;20419;-78
2022/05/21 11:15:00;;;;;;;8.33;7.07;;;17.90;51.90;;;;;;2618880;54;20364;-80
2022/05/21 11:17:51;;;;;;;13.37;7.70;;;18.00;44.60;;;;;;2619723;54;20409;-78
2022/05/21 11:20:20;;;;;;;7.60;6.80;;;18.20;40.00;;;;;;2617967;54;21042;-72
2022/05/21 11:23:14;;;;;;;8.70;7.10;;;18.10;44.00;;;;;;2615498;47;20919;-72
2022/05/21 11:25:51;;;;;;;13.00;7.00;;;18.10;45.60;;;;;;2615530;54;20389;-73
2022/05/21 11:28:46;;;;;;;17.20;7.33;;;17.90;48.60;;;;;;2615545;54;20419;-72
2022/05/21 11:37:19;;;;;;;7.63;6.83;;;17.60;55.50;;;;;;2616485;39;20782;-74
2022/05/21 11:39:39;;;;;;;11.97;7.60;;;18.00;45.00;;;;;;2621916;54;20393;-85
2022/05/21 11:42:12;;;;;;;16.63;7.20;;;18.60;43.10;;;;;;2615841;54;20514;-73
2022/05/21 11:45:08;;;;;;;11.77;7.63;;;19.40;35.90;;;;;;2615687;54;20395;-73
2022/05/21 11:47:44;;;;;;;8.80;7.30;;;19.70;34.60;;;;;;2615603;54;21003;-72
2022/05/21 11:50:22;;;;;;;10.60;7.57;;;19.80;30.30;;;;;;2617134;54;20365;-81
2022/05/21 11:52:58;;;;;;;11.63;7.30;;;19.60;28.00;;;;;;2619493;54;20403;-82
2022/05/21 11:55:31;;;;;;;12.57;7.60;;;19.30;24.90;;;;;;2617590;54;20445;-80
2022/05/21 11:57:58;;;;;;;11.77;6.57;;;19.00;25.40;;;;;;2617759;54;20448;-83
2022/05/21 12:00:24;;;;;;;15.03;7.43;;;18.80;27.20;;;;;;2616288;54;20408;-85
2022/05/21 12:02:54;;;;;;;10.87;7.87;;;18.60;33.70;;;;;;2621360;54;20369;-85
2022/05/21 12:05:35;;;;;;;7.77;6.50;;;18.30;37.70;;;;;;2619575;39;20235;-74
2022/05/21 12:08:12;;;;;;;10.80;8.30;;;18.40;46.90;;;;;;2613072;54;20408;-74
2022/05/21 12:11:08;;;;;;;12.27;7.23;;;18.80;39.00;;;;;;2613279;54;20963;-72
2022/05/21 12:13:34;;;;;;;7.90;7.20;;;18.70;34.80;;;;;;2613816;54;20423;-72
2022/05/21 12:16:17;;;;;;;9.10;7.07;;;18.50;37.80;;;;;;2616193;54;20914;-80
2022/05/21 12:18:44;;;;;;;11.83;7.00;;;18.40;38.30;;;;;;2613253;47;20206;-79
2022/05/21 12:21:37;;;;;;;9.13;7.17;;;18.50;37.80;;;;;;2615233;54;20392;-74
2022/05/21 12:24:02;;;;;;;12.50;8.40;;;18.70;34.10;;;;;;2615277;54;20413;-73
2022/05/21 12:26:48;;;;;;;13.10;7.77;;;18.70;32.20;;;;;;2615247;54;21040;-73
2022/05/21 12:29:25;;;;;;;9.80;7.10;;;18.70;31.00;;;;;;2614712;39;20866;-72
2022/05/21 12:31:59;;;;;;;7.47;6.80;;;18.60;30.10;;;;;;2615159;54;20417;-71
2022/05/21 12:35:08;;;;;;;7.93;6.50;;;18.50;27.50;;;;;;2614378;54;20411;-71
2022/05/21 12:37:44;;;;;;;12.17;8.67;;;18.40;28.70;;;;;;2621470;47;20396;-84
2022/05/21 12:40:23;;;;;;;14.33;8.27;;;18.60;29.90;;;;;;2619118;54;20511;-72
2022/05/21 12:42:55;;;;;;;9.80;7.57;;;18.90;27.50;;;;;;2615275;54;20396;-72
2022/05/21 12:45:43;;;;;;;15.23;8.23;;;19.00;28.50;;;;;;2615302;39;20778;-74
2022/05/21 12:48:19;;;;;;;9.80;7.70;;;19.20;26.60;;;;;;2614737;54;20452;-73
2022/05/21 12:50:55;;;;;;;16.33;9.20;;;19.30;28.00;;;;;;2615480;47;20394;-72
2022/05/21 12:53:37;;;;;;;12.73;8.50;;;19.20;25.90;;;;;;2615529;54;20408;-73
2022/05/21 12:56:15;;;;;;;13.80;8.40;;;19.10;27.40;;;;;;2615331;47;20424;-74
2022/05/21 12:58:41;;;;;;;11.90;8.07;;;19.00;27.60;;;;;;2615121;54;20405;-74
2022/05/21 13:01:09;;;;;;;14.00;9.03;;;18.70;28.50;;;;;;2618378;54;20390;-85
2022/05/21 13:03:36;;;;;;;17.50;9.00;;;18.50;29.10;;;;;;2622442;54;20251;-82
2022/05/21 13:06:09;;;;;;;10.07;8.97;;;18.30;30.40;;;;;;2617314;54;20385;-72
2022/05/21 13:08:40;;;;;;;12.17;7.90;;;18.20;33.10;;;;;;2615519;54;20397;-72
2022/05/21 13:11:18;;;;;;;14.50;8.70;;;18.40;29.60;;;;;;2615026;54;20531;-74
2022/05/21 13:13:57;;;;;;;13.40;7.70;;;18.60;30.20;;;;;;2614638;47;20536;-72
2022/05/21 13:16:23;;;;;;;12.93;8.67;;;18.80;31.70;;;;;;2614905;54;20511;-75
2022/05/21 13:18:58;;;;;;;9.70;7.00;;;19.40;24.70;;;;;;2615354;54;20434;-75
2022/05/21 13:21:52;;;;;;;9.77;7.47;;;19.90;24.30;;;;;;2614672;54;20433;-69
2022/05/21 13:24:37;;;;;;;9.53;7.50;;;20.40;18.40;;;;;;2615284;54;20403;-70
2022/05/21 13:27:08;;;;;;;11.17;7.63;;;20.90;16.50;;;;;;2615053;54;20401;-73
2022/05/21 13:29:34;;;;;;;9.20;6.50;;;21.40;16.30;;;;;;2615205;39;20786;-73
2022/05/21 13:32:18;;;;;;;9.13;7.43;;;21.60;8.30;;;;;;2615019;54;20496;-72
2022/05/21 13:34:45;;;;;;;9.13;6.43;;;21.20;8.30;;;;;;2614658;54;20402;-71
2022/05/21 13:37:12;;;;;;;8.30;7.50;;;20.80;8.50;;;;;;2614818;54;20397;-71
2022/05/21 13:39:38;;;;;;;13.10;7.63;;;20.30;10.90;;;;;;2614445;31;20942;-71
2022/05/21 13:42:13;;;;;;;8.60;7.00;;;20.20;10.50;;;;;;2615463;54;20461;-70
2022/05/21 13:44:42;;;;;;;10.97;7.03;;;20.00;11.50;;;;;;2614802;54;20377;-70
2022/05/21 13:47:19;;;;;;;9.03;8.13;;;19.90;12.00;;;;;;2614807;54;20494;-73